Time;durP1;ratioP1;P1;durP2;ratioP2;P2;SDS_P1;SDS_P2;PMS_P1;PMS_P2;Temp;Humidity;BMP_temperature;BMP_pressure;BME280_temperature;BME280_humidity;BME280_pressure;Samples;Min_cycle;Max_cycle;Signal;HPM_P1;HPM_P2
2022/07/24 00:01:35;;;;;;;9.85;5.55;;;18.70;98.30;;;;;;5022568;28;45058;-74
2022/07/24 00:04:03;;;;;;;7.63;4.53;;;18.50;99.40;;;;;;5022110;28;47105;-74
2022/07/24 00:06:29;;;;;;;7.50;4.22;;;18.50;99.00;;;;;;5021844;28;45220;-74
2022/07/24 00:08:56;;;;;;;7.05;4.50;;;18.70;98.50;;;;;;5022146;28;45167;-74
2022/07/24 00:11:23;;;;;;;7.38;4.45;;;18.90;98.70;;;;;;5041897;28;45196;-75
2022/07/24 00:13:50;;;;;;;10.27;4.15;;;19.00;97.10;;;;;;5043896;27;47512;-74
2022/07/24 00:16:44;;;;;;;6.22;4.22;;;19.00;96.90;;;;;;5055201;28;45241;-74
2022/07/24 00:19:10;;;;;;;9.25;5.00;;;18.90;96.90;;;;;;5065480;28;45091;-74
2022/07/24 00:21:37;;;;;;;7.65;4.30;;;19.00;96.40;;;;;;5065294;28;45580;-75
2022/07/24 00:24:05;;;;;;;5.85;4.28;;;19.00;96.30;;;;;;5064684;28;46552;-75
2022/07/24 00:26:32;;;;;;;5.13;4.10;;;19.00;96.50;;;;;;5064791;28;46168;-74
2022/07/24 00:28:59;;;;;;;7.93;4.68;;;19.10;96.20;;;;;;5065008;28;45226;-74
2022/07/24 00:31:25;;;;;;;6.95;4.18;;;19.10;96.00;;;;;;5065364;28;45220;-74
2022/07/24 00:33:54;;;;;;;8.63;4.72;;;19.00;96.50;;;;;;5064805;28;48512;-75
2022/07/24 00:36:20;;;;;;;6.50;4.85;;;18.90;96.30;;;;;;5065055;28;45221;-74
2022/07/24 00:38:47;;;;;;;8.70;4.72;;;19.00;96.60;;;;;;5065207;28;45117;-74
2022/07/24 00:41:33;;;;;;;6.32;4.72;;;18.90;96.40;;;;;;5075365;28;45690;-75
2022/07/24 00:44:03;;;;;;;7.97;5.18;;;19.00;96.40;;;;;;5075492;28;46953;-75
2022/07/24 00:46:33;;;;;;;8.20;5.00;;;18.90;96.20;;;;;;5066221;28;45315;-74
2022/07/24 00:49:01;;;;;;;8.95;5.25;;;18.80;96.60;;;;;;5064809;28;45204;-74
2022/07/24 00:51:28;;;;;;;11.50;5.35;;;18.90;96.40;;;;;;5065119;28;45333;-74
2022/07/24 00:53:55;;;;;;;8.43;5.68;;;18.90;96.80;;;;;;5064871;28;47331;-74
2022/07/24 00:59:44;;;;;;;11.15;5.60;;;18.80;96.60;;;;;;5062005;28;45250;-75
2022/07/24 01:05:34;;;;;;;7.60;5.32;;;18.70;96.90;;;;;;5021479;28;45221;-74
2022/07/24 01:08:01;;;;;;;14.10;6.32;;;18.70;97.60;;;;;;5024538;28;45257;-74
2022/07/24 01:10:28;;;;;;;11.32;6.18;;;18.70;97.40;;;;;;5024601;28;45146;-74
2022/07/24 01:12:56;;;;;;;10.77;5.97;;;18.70;97.60;;;;;;5024630;28;45298;-74
2022/07/24 01:15:22;;;;;;;9.82;6.05;;;18.60;98.10;;;;;;5027366;28;46992;-74
2022/07/24 01:25:02;;;;;;;9.35;6.40;;;18.20;99.20;;;;;;5043326;28;45323;-75
2022/07/24 01:27:29;;;;;;;8.30;5.85;;;18.00;99.90;;;;;;5023890;28;46570;-74
2022/07/24 01:29:55;;;;;;;8.52;5.40;;;18.20;99.90;;;;;;5024244;27;45818;-75
2022/07/24 01:32:22;;;;;;;11.13;5.47;;;18.20;99.90;;;;;;5024539;27;45307;-74
2022/07/24 01:34:49;;;;;;;7.97;5.57;;;18.10;99.90;;;;;;5024511;27;45174;-75
2022/07/24 01:37:16;;;;;;;9.10;5.32;;;18.10;99.90;;;;;;5026355;27;47761;-74
2022/07/24 01:39:43;;;;;;;10.48;5.63;;;18.00;99.90;;;;;;5024563;27;45113;-74
2022/07/24 01:42:11;;;;;;;11.52;6.10;;;18.10;99.90;;;;;;5024493;28;45131;-74
2022/07/24 01:44:38;;;;;;;11.95;6.22;;;18.20;99.90;;;;;;5023874;27;45335;-74
2022/07/24 01:47:05;;;;;;;11.07;6.00;;;18.20;99.90;;;;;;5023862;27;47012;-74
2022/07/24 01:49:32;;;;;;;7.10;6.13;;;18.10;99.90;;;;;;5024184;27;45247;-74
2022/07/24 01:51:58;;;;;;;8.70;5.88;;;18.10;99.90;;;;;;5024475;27;45081;-74
2022/07/24 01:54:25;;;;;;;13.00;6.45;;;18.10;99.90;;;;;;5024132;27;45592;-74
2022/07/24 01:56:52;;;;;;;11.15;6.25;;;18.10;99.90;;;;;;5023697;27;45611;-74
2022/07/24 01:59:20;;;;;;;9.43;5.20;;;18.10;99.90;;;;;;5024001;27;45305;-74
2022/07/24 02:01:47;;;;;;;10.20;6.00;;;18.10;99.90;;;;;;5024282;27;45200;-75
2022/07/24 02:04:14;;;;;;;12.30;6.60;;;18.00;99.90;;;;;;5024042;27;45424;-75
2022/07/24 02:06:40;;;;;;;8.27;5.90;;;17.90;99.90;;;;;;5023487;27;45707;-74
2022/07/24 02:09:07;;;;;;;10.15;5.95;;;17.90;99.90;;;;;;5024090;27;45174;-75
2022/07/24 02:11:34;;;;;;;9.35;6.47;;;17.90;99.90;;;;;;5024173;27;45300;-74
2022/07/24 02:14:01;;;;;;;8.75;6.07;;;17.90;99.90;;;;;;5024083;27;45411;-74
2022/07/24 02:16:29;;;;;;;10.52;6.40;;;17.90;99.90;;;;;;5023720;27;46956;-74
2022/07/24 02:18:56;;;;;;;10.57;6.70;;;17.90;99.90;;;;;;5024001;27;45272;-74
2022/07/24 02:21:23;;;;;;;11.38;6.78;;;17.90;99.90;;;;;;5023960;27;45234;-74
2022/07/24 02:23:50;;;;;;;12.35;6.28;;;17.90;99.90;;;;;;5023739;27;45558;-75
2022/07/24 02:26:16;;;;;;;10.80;6.88;;;18.00;99.90;;;;;;5022997;27;45296;-75
2022/07/24 02:28:43;;;;;;;10.68;6.72;;;18.00;99.90;;;;;;5024219;27;45123;-75
2022/07/24 02:31:10;;;;;;;11.20;6.38;;;18.00;99.90;;;;;;5023873;27;45338;-75
2022/07/24 02:33:38;;;;;;;10.25;6.82;;;18.00;99.90;;;;;;5028709;27;45109;-75
2022/07/24 02:36:06;;;;;;;12.25;6.30;;;18.00;99.90;;;;;;5042183;28;47935;-74
2022/07/24 02:38:32;;;;;;;12.07;6.38;;;18.00;99.90;;;;;;5043411;28;45323;-74
2022/07/24 02:40:59;;;;;;;12.70;6.45;;;18.00;99.90;;;;;;5043383;28;45159;-75
2022/07/24 02:43:26;;;;;;;12.18;7.03;;;18.10;99.90;;;;;;5043710;28;45224;-75
2022/07/24 02:45:53;;;;;;;16.67;6.95;;;18.00;99.90;;;;;;5043231;27;46576;-75
2022/07/24 02:48:20;;;;;;;10.32;6.13;;;18.10;99.90;;;;;;5043305;28;45929;-75
2022/07/24 02:50:48;;;;;;;13.00;6.93;;;18.40;99.90;;;;;;5043381;28;45352;-74
2022/07/24 02:53:15;;;;;;;8.77;6.78;;;18.10;99.90;;;;;;5043454;28;45282;-75
2022/07/24 02:55:42;;;;;;;11.02;7.18;;;17.90;99.90;;;;;;5043430;28;47519;-75
2022/07/24 02:58:09;;;;;;;11.93;7.18;;;17.80;99.90;;;;;;5043121;28;45185;-75
2022/07/24 03:00:36;;;;;;;12.43;7.20;;;17.70;99.90;;;;;;5043367;28;45218;-75
2022/07/24 03:03:02;;;;;;;11.15;7.30;;;17.90;99.90;;;;;;5043457;28;45217;-75
2022/07/24 03:05:29;;;;;;;13.63;6.97;;;17.90;99.90;;;;;;5042675;28;47889;-75
2022/07/24 03:07:58;;;;;;;12.68;7.28;;;17.90;99.90;;;;;;5043055;28;45180;-75
2022/07/24 03:10:24;;;;;;;10.57;6.50;;;17.90;99.90;;;;;;5043170;28;45217;-75
2022/07/24 03:12:51;;;;;;;12.93;6.85;;;17.90;99.90;;;;;;5043688;28;45257;-75
2022/07/24 03:15:18;;;;;;;9.65;6.20;;;18.00;99.90;;;;;;5042757;28;46456;-75
2022/07/24 03:17:52;;;;;;;9.68;6.72;;;18.00;99.90;;;;;;5042987;27;45709;-75
2022/07/24 03:20:19;;;;;;;14.38;7.15;;;17.70;99.90;;;;;;5043223;28;45320;-75
2022/07/24 03:22:46;;;;;;;10.73;6.88;;;17.60;99.90;;;;;;5023193;28;45268;-74
2022/07/24 03:25:15;;;;;;;14.15;7.45;;;17.50;99.90;;;;;;5022406;28;48230;-75
2022/07/24 03:27:42;;;;;;;10.98;7.13;;;17.50;99.90;;;;;;5022561;28;45726;-75
2022/07/24 03:30:10;;;;;;;11.23;7.00;;;17.40;99.90;;;;;;5022802;28;45206;-75
2022/07/24 03:32:37;;;;;;;14.38;7.72;;;17.40;99.90;;;;;;5023299;27;45083;-74
2022/07/24 03:35:05;;;;;;;9.98;6.60;;;17.30;99.90;;;;;;5022517;28;45440;-75
2022/07/24 03:37:32;;;;;;;12.63;6.95;;;17.30;99.90;;;;;;5022591;28;45318;-75
2022/07/24 03:39:58;;;;;;;11.98;7.13;;;17.30;99.90;;;;;;5022767;28;45154;-75
2022/07/24 03:42:27;;;;;;;13.82;7.10;;;17.30;99.90;;;;;;5022883;28;45076;-75
2022/07/24 03:44:53;;;;;;;12.95;6.88;;;17.40;99.90;;;;;;5022403;28;48702;-75
2022/07/24 03:47:20;;;;;;;13.85;7.15;;;17.40;99.90;;;;;;5023765;28;45236;-74
2022/07/24 03:49:47;;;;;;;10.90;6.60;;;17.50;99.90;;;;;;5025750;28;45220;-75
2022/07/24 03:52:14;;;;;;;12.90;7.13;;;17.60;99.90;;;;;;5025578;28;45300;-75
2022/07/24 03:54:41;;;;;;;13.25;7.75;;;17.50;99.90;;;;;;5025550;28;45219;-75
2022/07/24 03:57:08;;;;;;;14.20;7.15;;;17.50;99.90;;;;;;5025641;28;45169;-75
2022/07/24 03:59:37;;;;;;;13.25;7.15;;;17.50;99.90;;;;;;5025787;27;45403;-75
2022/07/24 04:02:04;;;;;;;10.75;7.07;;;17.40;99.90;;;;;;5025389;28;45356;-75
2022/07/24 04:04:31;;;;;;;11.80;6.80;;;17.40;99.90;;;;;;5025209;28;47349;-75
2022/07/24 04:06:58;;;;;;;14.30;7.80;;;17.40;99.90;;;;;;5025284;28;45182;-75
2022/07/24 04:09:24;;;;;;;13.32;7.40;;;17.70;99.90;;;;;;5025609;27;45211;-75
2022/07/24 04:11:51;;;;;;;15.02;7.32;;;17.70;99.90;;;;;;5027854;28;45207;-75
2022/07/24 04:14:18;;;;;;;12.85;7.60;;;17.60;99.90;;;;;;5025663;28;46674;-75
2022/07/24 04:16:47;;;;;;;12.75;7.30;;;17.50;99.90;;;;;;5025149;28;45095;-75
2022/07/24 04:19:14;;;;;;;13.38;7.53;;;17.50;99.90;;;;;;5025386;28;45270;-75
2022/07/24 04:21:41;;;;;;;15.07;7.38;;;17.50;99.90;;;;;;5025470;28;45557;-75
2022/07/24 04:24:08;;;;;;;13.95;7.45;;;17.50;99.90;;;;;;5025082;28;47484;-75
2022/07/24 04:26:35;;;;;;;14.27;7.93;;;17.40;99.90;;;;;;5024720;28;45220;-75
2022/07/24 04:29:01;;;;;;;11.90;7.25;;;17.50;99.90;;;;;;5025430;28;45215;-75
2022/07/24 04:31:28;;;;;;;7.35;5.22;;;17.90;99.90;;;;;;5025195;28;45173;-74
2022/07/24 04:33:56;;;;;;;11.88;7.15;;;18.80;99.90;;;;;;5024819;28;48366;-75
2022/07/24 04:36:23;;;;;;;10.38;7.22;;;18.70;99.90;;;;;;5025306;28;45307;-75
2022/07/24 04:38:51;;;;;;;12.20;6.70;;;18.80;99.90;;;;;;5025134;28;45137;-75
2022/07/24 04:41:18;;;;;;;12.10;6.10;;;18.90;99.90;;;;;;5025177;28;45141;-75
2022/07/24 04:43:45;;;;;;;12.50;6.10;;;19.30;99.90;;;;;;5025073;28;45153;-75
2022/07/24 04:46:11;;;;;;;12.18;5.97;;;19.00;99.90;;;;;;5024941;28;45305;-75
2022/07/24 04:48:38;;;;;;;9.50;4.93;;;20.10;97.80;;;;;;5024916;28;45379;-75
2022/07/24 04:51:07;;;;;;;9.23;6.25;;;20.30;97.60;;;;;;5025200;28;45137;-75
2022/07/24 04:53:33;;;;;;;12.32;6.90;;;19.60;99.10;;;;;;5024646;28;47968;-75
2022/07/24 04:56:00;;;;;;;8.68;6.15;;;18.60;99.90;;;;;;5025054;28;45398;-75
2022/07/24 04:58:27;;;;;;;13.30;6.93;;;18.20;99.90;;;;;;5024202;27;45351;-75
2022/07/24 05:00:54;;;;;;;8.85;6.47;;;18.00;99.90;;;;;;5025263;28;45548;-75
2022/07/24 05:03:21;;;;;;;21.58;6.90;;;18.00;99.90;;;;;;5025549;27;48816;-75
2022/07/24 05:05:48;;;;;;;11.85;6.60;;;18.10;99.90;;;;;;5024846;28;45137;-75
2022/07/24 05:08:16;;;;;;;10.70;7.43;;;18.10;99.90;;;;;;5024733;28;45365;-75
2022/07/24 05:10:43;;;;;;;11.93;7.05;;;17.90;99.90;;;;;;5024628;28;45517;-75
2022/07/24 05:13:10;;;;;;;12.70;7.25;;;17.80;99.90;;;;;;5025008;28;47603;-75
2022/07/24 05:15:37;;;;;;;11.45;6.97;;;17.80;99.90;;;;;;5024720;28;45238;-75
2022/07/24 05:18:04;;;;;;;10.10;7.03;;;17.90;99.90;;;;;;5024564;28;45110;-75
2022/07/24 05:20:31;;;;;;;14.73;7.97;;;17.80;99.90;;;;;;5024618;28;45209;-75
2022/07/24 05:22:58;;;;;;;10.50;6.60;;;18.00;99.90;;;;;;5024533;28;45169;-75
2022/07/24 05:25:26;;;;;;;13.65;7.15;;;18.00;99.90;;;;;;5024245;28;45185;-75
2022/07/24 05:27:53;;;;;;;11.52;7.18;;;17.90;99.90;;;;;;5024385;28;45136;-75
2022/07/24 05:33:42;;;;;;;16.70;7.28;;;18.00;99.90;;;;;;5021379;28;45650;-75
2022/07/24 05:36:09;;;;;;;12.20;6.47;;;18.00;99.90;;;;;;5024272;28;45122;-75
2022/07/24 05:38:36;;;;;;;9.18;6.10;;;18.10;99.90;;;;;;5024464;27;45362;-75
2022/07/24 05:41:04;;;;;;;9.68;6.53;;;18.20;99.90;;;;;;5024525;27;45196;-75
2022/07/24 05:43:31;;;;;;;11.50;6.35;;;18.40;99.90;;;;;;5024504;27;46436;-75
2022/07/24 05:45:58;;;;;;;12.45;5.97;;;18.40;99.90;;;;;;5024501;27;45299;-75
2022/07/24 05:48:24;;;;;;;11.10;6.13;;;18.50;99.90;;;;;;5024413;28;45288;-75
2022/07/24 05:50:51;;;;;;;12.00;6.40;;;18.70;99.90;;;;;;5024644;28;45349;-75
2022/07/24 05:53:18;;;;;;;11.88;5.70;;;18.80;99.90;;;;;;5024171;28;48092;-75
2022/07/24 05:55:45;;;;;;;11.20;5.35;;;18.90;99.90;;;;;;5026528;28;45318;-75
2022/07/24 05:58:13;;;;;;;12.30;5.95;;;18.90;99.90;;;;;;5024686;28;45189;-75
2022/07/24 06:00:40;;;;;;;7.93;5.70;;;18.90;99.90;;;;;;5024648;28;45566;-75
2022/07/24 06:03:07;;;;;;;9.23;5.80;;;18.80;99.90;;;;;;5024184;27;45206;-75
2022/07/24 06:05:34;;;;;;;14.80;5.80;;;18.90;99.90;;;;;;5023917;28;45242;-75
2022/07/24 06:08:01;;;;;;;12.23;5.97;;;19.10;99.90;;;;;;5024152;28;45397;-75
2022/07/24 06:10:28;;;;;;;8.07;5.60;;;19.30;99.80;;;;;;5024293;28;45489;-75
2022/07/24 06:12:55;;;;;;;8.45;5.50;;;19.50;99.90;;;;;;5023955;28;48671;-75
2022/07/24 06:15:23;;;;;;;8.75;5.32;;;19.40;99.60;;;;;;5024148;28;45440;-75
2022/07/24 06:17:50;;;;;;;10.43;5.07;;;19.60;99.90;;;;;;5023753;28;45301;-75
2022/07/24 06:20:17;;;;;;;13.63;5.40;;;19.80;98.70;;;;;;5024024;28;45573;-75
2022/07/24 06:22:45;;;;;;;10.40;5.82;;;19.90;98.70;;;;;;5023945;27;47321;-75
2022/07/24 06:25:14;;;;;;;11.40;5.80;;;19.90;98.20;;;;;;5023593;28;46404;-75
2022/07/24 06:27:42;;;;;;;11.65;6.05;;;19.70;98.90;;;;;;5023805;27;45197;-75
2022/07/24 06:30:14;;;;;;;11.48;5.65;;;19.80;99.10;;;;;;5024202;27;45167;-75
2022/07/24 06:32:43;;;;;;;11.60;6.47;;;19.80;98.60;;;;;;5023769;28;48234;-75
2022/07/24 06:35:10;;;;;;;12.15;5.70;;;19.90;98.60;;;;;;5023758;27;45210;-75
2022/07/24 06:37:36;;;;;;;8.57;5.47;;;20.00;98.30;;;;;;5024063;27;45075;-75
2022/07/24 06:40:04;;;;;;;13.40;6.25;;;20.00;97.80;;;;;;5023853;28;45309;-76
2022/07/24 06:42:31;;;;;;;11.85;6.38;;;20.20;97.20;;;;;;5023306;28;48192;-75
2022/07/24 06:44:58;;;;;;;10.85;5.55;;;20.20;97.20;;;;;;5023948;28;45145;-76
2022/07/24 06:47:25;;;;;;;6.88;3.90;;;20.50;97.00;;;;;;5024172;27;45238;-75
2022/07/24 06:49:54;;;;;;;13.70;5.43;;;21.00;95.80;;;;;;5024103;27;45205;-75
2022/07/24 06:52:21;;;;;;;8.23;5.03;;;21.10;95.30;;;;;;5023501;27;45432;-75
2022/07/24 06:54:48;;;;;;;12.68;5.40;;;21.10;94.90;;;;;;5023398;28;45128;-75
2022/07/24 06:57:14;;;;;;;10.68;5.43;;;20.90;95.40;;;;;;5023390;27;45108;-75
2022/07/24 06:59:41;;;;;;;17.77;6.38;;;21.20;94.80;;;;;;5023399;28;45137;-75
2022/07/24 07:02:08;;;;;;;14.23;5.95;;;21.20;93.50;;;;;;5023328;28;48580;-75
2022/07/24 07:04:35;;;;;;;10.27;5.47;;;20.90;94.00;;;;;;5023442;28;45313;-75
2022/07/24 07:07:03;;;;;;;8.77;6.05;;;20.90;94.70;;;;;;5023517;28;45274;-75
2022/07/24 07:09:30;;;;;;;7.05;5.28;;;21.20;94.10;;;;;;5023577;28;45218;-75
2022/07/24 07:11:57;;;;;;;12.30;6.40;;;21.20;94.50;;;;;;5023153;28;47034;-75
2022/07/24 07:14:24;;;;;;;9.50;6.43;;;21.10;94.50;;;;;;5022958;28;45625;-75
2022/07/24 07:16:51;;;;;;;8.02;5.45;;;21.00;94.70;;;;;;5023216;28;45221;-76
2022/07/24 07:19:17;;;;;;;12.20;5.30;;;21.20;95.00;;;;;;5023527;28;45531;-76
2022/07/24 07:21:44;;;;;;;10.55;6.10;;;21.50;94.20;;;;;;5022499;28;47729;-76
2022/07/24 07:24:12;;;;;;;10.00;6.35;;;21.50;94.30;;;;;;5022904;28;45259;-75
2022/07/24 07:26:39;;;;;;;8.25;6.03;;;21.40;94.00;;;;;;5022534;28;45220;-75
2022/07/24 07:29:06;;;;;;;9.40;6.47;;;21.70;93.70;;;;;;5023240;28;45202;-75
2022/07/24 07:31:33;;;;;;;9.88;6.47;;;21.80;93.40;;;;;;5022644;28;47084;-76
2022/07/24 07:37:21;;;;;;;12.98;6.38;;;21.70;93.10;;;;;;5022185;28;45227;-75
2022/07/24 07:39:49;;;;;;;11.20;7.75;;;21.70;92.60;;;;;;5023496;28;45083;-75
2022/07/24 07:42:16;;;;;;;16.75;9.30;;;21.70;92.80;;;;;;5022849;28;45201;-75
2022/07/24 07:44:43;;;;;;;17.55;10.02;;;21.80;92.50;;;;;;5022574;28;45334;-75
2022/07/24 07:47:10;;;;;;;16.70;9.65;;;21.80;92.00;;;;;;5023047;28;45482;-75
2022/07/24 07:49:36;;;;;;;15.48;9.77;;;21.90;92.10;;;;;;5022971;28;45201;-75
2022/07/24 07:52:04;;;;;;;15.77;9.15;;;22.00;91.80;;;;;;5022723;28;46588;-75
2022/07/24 07:54:31;;;;;;;15.02;8.52;;;22.10;90.90;;;;;;5022616;27;45296;-75
2022/07/24 07:56:59;;;;;;;13.38;8.30;;;22.00;91.60;;;;;;5022713;28;45198;-75
2022/07/24 07:59:25;;;;;;;12.13;8.07;;;22.10;91.60;;;;;;5022770;28;45274;-75
2022/07/24 08:01:52;;;;;;;10.38;6.75;;;22.10;91.90;;;;;;5022256;28;47714;-75
2022/07/24 08:04:19;;;;;;;13.65;7.75;;;22.20;91.00;;;;;;5022590;28;45116;-75
2022/07/24 08:06:46;;;;;;;14.85;7.47;;;22.30;90.70;;;;;;5022597;28;45272;-75
2022/07/24 08:09:13;;;;;;;9.48;6.25;;;22.30;90.40;;;;;;5022294;28;45281;-76
2022/07/24 08:11:40;;;;;;;8.73;5.22;;;22.30;90.50;;;;;;5021994;28;46686;-76
2022/07/24 08:14:27;;;;;;;12.85;6.10;;;22.30;91.80;;;;;;5022380;28;45357;-75
2022/07/24 08:20:15;;;;;;;12.02;6.10;;;22.30;90.90;;;;;;5019420;28;45366;-76
2022/07/24 08:26:03;;;;;;;7.60;4.53;;;22.40;90.50;;;;;;5020174;28;45450;-76
2022/07/24 08:28:30;;;;;;;12.50;5.97;;;22.40;91.50;;;;;;5022231;28;45199;-76
2022/07/24 08:30:58;;;;;;;9.40;4.70;;;22.40;91.10;;;;;;5022471;28;45482;-75
2022/07/24 08:33:25;;;;;;;8.07;5.75;;;22.30;91.50;;;;;;5021901;28;45734;-76
2022/07/24 08:35:52;;;;;;;5.75;4.60;;;22.40;90.60;;;;;;5025234;28;45287;-75
2022/07/24 08:38:19;;;;;;;11.90;6.55;;;22.40;92.00;;;;;;5024254;28;45248;-75
2022/07/24 08:40:46;;;;;;;10.97;5.50;;;22.50;90.00;;;;;;5024523;28;45391;-76
2022/07/24 08:43:14;;;;;;;8.43;5.32;;;22.50;90.80;;;;;;5023743;28;46426;-76
2022/07/24 08:45:43;;;;;;;9.15;6.38;;;22.50;91.10;;;;;;5024391;28;45142;-76
2022/07/24 08:48:12;;;;;;;10.40;6.35;;;22.50;92.60;;;;;;5028148;27;45304;-75
2022/07/24 08:50:41;;;;;;;8.30;6.43;;;22.40;91.70;;;;;;5044414;28;45270;-75
2022/07/24 08:53:09;;;;;;;9.25;6.05;;;22.30;92.40;;;;;;5043138;28;46383;-75
2022/07/24 08:55:36;;;;;;;7.93;5.03;;;22.20;92.40;;;;;;5044320;28;45187;-75
2022/07/24 08:58:03;;;;;;;6.77;5.30;;;22.30;92.20;;;;;;5043241;28;45344;-75
2022/07/24 09:00:32;;;;;;;9.05;6.47;;;22.30;92.40;;;;;;5043753;28;45213;-75
2022/07/24 09:02:58;;;;;;;7.35;5.82;;;22.40;92.60;;;;;;5044045;27;48250;-75
2022/07/24 09:05:27;;;;;;;6.88;5.95;;;22.30;92.90;;;;;;5044166;27;45172;-75
2022/07/24 09:08:10;;;;;;;7.93;5.35;;;22.30;92.70;;;;;;5029179;28;45278;-75
2022/07/24 09:10:37;;;;;;;7.85;5.53;;;22.20;93.00;;;;;;5024651;28;45500;-75
2022/07/24 09:13:14;;;;;;;9.32;5.53;;;22.10;93.20;;;;;;5024574;28;47988;-75
2022/07/24 09:15:46;;;;;;;6.38;4.50;;;22.10;93.00;;;;;;5038022;28;45416;-75
2022/07/24 09:18:27;;;;;;;9.90;5.20;;;22.20;90.90;;;;;;5044162;28;45200;-76
2022/07/24 09:20:56;;;;;;;17.85;4.65;;;22.50;89.20;;;;;;5040924;28;45164;-74
2022/07/24 09:23:24;;;;;;;14.00;5.28;;;22.60;88.90;;;;;;5044002;28;48534;-77
2022/07/24 09:25:54;;;;;;;9.63;4.45;;;22.70;90.90;;;;;;5044354;28;45131;-77
2022/07/24 09:28:22;;;;;;;8.07;4.18;;;22.80;90.30;;;;;;5044348;28;45235;-76
2022/07/24 09:30:49;;;;;;;5.63;4.13;;;22.90;88.10;;;;;;5044545;28;45209;-75
2022/07/24 09:33:17;;;;;;;10.25;3.90;;;22.90;87.80;;;;;;5025308;28;47295;-77
2022/07/24 09:35:47;;;;;;;5.60;3.70;;;22.80;90.40;;;;;;5024103;28;45451;-77
2022/07/24 09:38:16;;;;;;;5.00;3.40;;;22.80;90.90;;;;;;5024374;28;45340;-76
2022/07/24 09:40:46;;;;;;;5.85;4.03;;;22.80;91.00;;;;;;5024398;28;45125;-75
2022/07/24 09:43:15;;;;;;;6.97;3.00;;;22.80;91.70;;;;;;5024184;28;48941;-76
2022/07/24 09:46:00;;;;;;;5.97;3.55;;;22.80;91.30;;;;;;5023906;28;45852;-76
2022/07/24 09:48:32;;;;;;;5.93;3.40;;;22.70;92.00;;;;;;5024391;28;45134;-76
2022/07/24 09:51:01;;;;;;;4.15;3.33;;;22.70;91.40;;;;;;5024318;28;45313;-77
2022/07/24 09:53:31;;;;;;;9.48;4.07;;;22.70;92.10;;;;;;5024220;28;47116;-76
2022/07/24 09:56:03;;;;;;;4.50;3.15;;;22.80;91.20;;;;;;5024106;28;45274;-76
2022/07/24 09:58:31;;;;;;;4.32;2.88;;;22.80;91.10;;;;;;5024399;28;45150;-76
2022/07/24 10:01:00;;;;;;;4.35;2.83;;;22.80;91.00;;;;;;5024549;28;45340;-76
2022/07/24 10:03:29;;;;;;;7.32;3.92;;;22.80;91.10;;;;;;5023514;28;47610;-76
2022/07/24 10:05:58;;;;;;;9.73;4.00;;;22.90;86.40;;;;;;5038918;28;45206;-75
2022/07/24 10:08:26;;;;;;;30.08;5.55;;;23.00;86.50;;;;;;5043256;28;45318;-74
2022/07/24 10:10:55;;;;;;;16.73;4.40;;;23.00;90.20;;;;;;5122206;27;45280;-75
2022/07/24 10:13:24;;;;;;;14.32;4.15;;;23.00;89.80;;;;;;5149197;27;48051;-75
2022/07/24 10:15:54;;;;;;;13.05;3.20;;;23.00;87.60;;;;;;5134714;27;45359;-75
2022/07/24 10:18:43;;;;;;;7.18;3.60;;;23.00;90.00;;;;;;5043826;28;45144;-75
2022/07/24 10:21:52;;;;;;;5.82;3.20;;;23.00;88.70;;;;;;5040940;28;45151;-75
2022/07/24 10:24:56;;;;;;;10.10;3.45;;;23.10;88.40;;;;;;5039901;28;45418;-74
2022/07/24 10:27:28;;;;;;;8.57;3.70;;;23.20;88.80;;;;;;5029838;28;45414;-75
2022/07/24 10:30:07;;;;;;;8.50;3.80;;;23.20;86.50;;;;;;5035945;28;45356;-75
2022/07/24 10:32:36;;;;;;;6.70;3.63;;;23.20;86.10;;;;;;5023405;28;45519;-75
2022/07/24 10:35:11;;;;;;;5.65;2.83;;;23.10;87.60;;;;;;5040177;28;46148;-75
2022/07/24 10:37:56;;;;;;;3.78;3.35;;;23.10;89.20;;;;;;5053703;28;45425;-75
2022/07/24 10:40:28;;;;;;;8.05;4.35;;;23.10;88.40;;;;;;5058301;28;45363;-75
2022/07/24 10:43:17;;;;;;;10.15;3.42;;;23.10;86.20;;;;;;5043468;27;45293;-75
2022/07/24 10:45:45;;;;;;;6.00;3.10;;;23.00;89.20;;;;;;5043039;27;46833;-75
2022/07/24 10:48:30;;;;;;;4.18;3.10;;;23.00;90.10;;;;;;5025422;27;45282;-75
2022/07/24 10:51:09;;;;;;;8.00;3.30;;;23.00;90.20;;;;;;5023307;28;45286;-75
2022/07/24 10:53:56;;;;;;;4.57;3.30;;;23.00;90.70;;;;;;5023073;28;45435;-75
2022/07/24 10:56:26;;;;;;;5.72;3.10;;;23.00;90.70;;;;;;5021906;28;46595;-75
2022/07/24 10:59:03;;;;;;;5.18;3.38;;;23.00;90.80;;;;;;5025298;28;45308;-75
2022/07/24 11:01:38;;;;;;;6.30;3.03;;;23.00;90.30;;;;;;5023518;27;45237;-75
2022/07/24 11:04:27;;;;;;;6.53;3.75;;;23.00;87.00;;;;;;5020614;28;45271;-75
2022/07/24 11:06:55;;;;;;;4.38;2.55;;;23.10;80.10;;;;;;5023646;28;46539;-75
2022/07/24 11:09:23;;;;;;;5.50;3.05;;;23.10;87.40;;;;;;5023135;28;45312;-75
2022/07/24 11:12:08;;;;;;;4.03;2.88;;;23.10;83.80;;;;;;5023230;28;45089;-75
2022/07/24 11:14:50;;;;;;;3.25;2.63;;;23.10;86.00;;;;;;5022909;28;45462;-75
2022/07/24 11:17:52;;;;;;;5.60;2.92;;;23.10;86.60;;;;;;5022660;28;48579;-75
2022/07/24 11:20:20;;;;;;;5.15;2.53;;;23.00;87.00;;;;;;5022716;28;45242;-75
2022/07/24 11:22:49;;;;;;;4.55;2.67;;;22.90;88.00;;;;;;5023107;28;45439;-75
2022/07/24 11:25:18;;;;;;;7.13;3.47;;;23.00;87.30;;;;;;5022924;28;45305;-75
2022/07/24 11:27:52;;;;;;;4.75;3.22;;;23.00;89.60;;;;;;5023276;28;46617;-75
2022/07/24 11:30:21;;;;;;;7.78;3.28;;;22.90;88.80;;;;;;5029983;28;45539;-74
2022/07/24 11:32:48;;;;;;;5.57;3.40;;;23.00;89.80;;;;;;5035541;27;45426;-74
2022/07/24 11:35:16;;;;;;;3.83;2.78;;;24.10;79.40;;;;;;5035220;28;45289;-74
2022/07/24 11:37:46;;;;;;;5.10;2.78;;;24.00;76.20;;;;;;5047817;28;45723;-74
2022/07/24 11:40:16;;;;;;;5.18;3.00;;;23.90;82.70;;;;;;5052234;28;45269;-74
2022/07/24 11:42:43;;;;;;;5.35;2.97;;;23.70;79.30;;;;;;5042060;28;45262;-74
2022/07/24 11:45:11;;;;;;;4.65;2.47;;;23.50;80.30;;;;;;5028157;28;45668;-75
2022/07/24 11:47:39;;;;;;;4.47;3.10;;;23.50;82.70;;;;;;5037373;28;45624;-74
2022/07/24 11:50:09;;;;;;;4.30;2.63;;;23.40;81.90;;;;;;5041256;28;45393;-75
2022/07/24 11:52:37;;;;;;;3.92;2.63;;;23.20;86.00;;;;;;5041770;28;45231;-75
2022/07/24 11:55:08;;;;;;;4.60;3.20;;;23.20;86.10;;;;;;5032763;28;45499;-74
2022/07/24 11:57:37;;;;;;;3.50;2.85;;;23.10;87.20;;;;;;5025921;28;45299;-74
2022/07/24 12:00:08;;;;;;;3.95;3.08;;;23.10;85.40;;;;;;5032857;28;45208;-75
2022/07/24 12:02:35;;;;;;;5.28;3.13;;;23.20;86.00;;;;;;5041421;28;45445;-74
2022/07/24 12:05:04;;;;;;;3.35;2.42;;;23.10;81.00;;;;;;5041653;28;45156;-74
2022/07/24 12:07:31;;;;;;;3.85;2.40;;;23.10;88.90;;;;;;5037100;28;47762;-74
2022/07/24 12:10:00;;;;;;;7.75;3.03;;;23.10;90.30;;;;;;5031870;28;45360;-75
2022/07/24 12:12:28;;;;;;;5.35;3.10;;;23.20;86.90;;;;;;5044394;28;45374;-74
2022/07/24 12:15:02;;;;;;;6.80;2.63;;;23.40;71.00;;;;;;5040305;28;45197;-75
2022/07/24 12:17:31;;;;;;;6.85;3.03;;;23.70;84.10;;;;;;5115027;27;46287;-75
2022/07/24 12:20:02;;;;;;;5.68;2.60;;;23.50;83.40;;;;;;5128999;27;45332;-74
2022/07/24 12:22:30;;;;;;;2.83;2.55;;;23.40;82.10;;;;;;5129280;27;45373;-74
2022/07/24 12:24:59;;;;;;;3.00;2.53;;;23.20;88.30;;;;;;5057928;27;45255;-74
2022/07/24 12:27:40;;;;;;;5.50;2.67;;;23.20;90.20;;;;;;5042769;28;47712;-75
2022/07/24 12:30:27;;;;;;;2.50;2.30;;;23.00;90.80;;;;;;5049248;27;45392;-74
2022/07/24 12:32:59;;;;;;;3.42;2.70;;;23.00;91.10;;;;;;5049058;28;45306;-75
2022/07/24 12:35:27;;;;;;;3.28;2.53;;;23.00;91.70;;;;;;5044279;28;45338;-74
2022/07/24 12:37:56;;;;;;;4.35;2.92;;;23.00;90.60;;;;;;5059534;28;45255;-75
2022/07/24 12:40:30;;;;;;;4.10;2.58;;;23.10;89.90;;;;;;5058053;28;45242;-75
2022/07/24 12:43:02;;;;;;;2.92;2.47;;;23.10;88.00;;;;;;5044962;28;45124;-75
2022/07/24 12:45:29;;;;;;;3.85;2.58;;;23.10;90.70;;;;;;5038880;28;45297;-73
2022/07/24 12:48:06;;;;;;;4.15;2.78;;;23.10;89.20;;;;;;5052323;27;47515;-75
2022/07/24 12:50:33;;;;;;;3.75;2.47;;;23.10;90.50;;;;;;5040240;28;45328;-75
2022/07/24 12:53:04;;;;;;;3.10;2.55;;;23.10;90.30;;;;;;5049338;27;45202;-74
2022/07/24 12:55:31;;;;;;;4.15;3.03;;;23.00;91.10;;;;;;5023533;28;45605;-74
2022/07/24 12:58:01;;;;;;;4.88;2.72;;;23.10;88.40;;;;;;5023521;28;45155;-74
2022/07/24 13:00:28;;;;;;;3.63;2.63;;;23.10;89.20;;;;;;5033936;28;45490;-74
2022/07/24 13:02:55;;;;;;;2.65;2.42;;;23.00;91.00;;;;;;5043170;28;45293;-75
2022/07/24 13:05:37;;;;;;;3.38;2.45;;;23.00;91.40;;;;;;5027230;28;45189;-75
2022/07/24 13:08:07;;;;;;;2.67;2.42;;;22.90;92.10;;;;;;5043535;27;47326;-75
2022/07/24 13:10:34;;;;;;;3.50;2.53;;;23.00;92.30;;;;;;5042929;28;45214;-75
2022/07/24 13:13:01;;;;;;;2.40;2.05;;;22.90;92.60;;;;;;5078404;27;45296;-75
2022/07/24 13:15:28;;;;;;;3.22;2.33;;;22.90;92.50;;;;;;5030621;28;45284;-74
2022/07/24 13:17:54;;;;;;;3.42;2.40;;;22.90;92.70;;;;;;5037880;28;48674;-75
2022/07/24 13:20:21;;;;;;;4.10;3.03;;;22.90;93.10;;;;;;5031823;28;45384;-74